createdAt,value
2018-12-25T00:00:41.416Z,1021.84
2018-12-25T00:01:41.405Z,1021.78
2018-12-25T00:02:41.404Z,1021.81
2018-12-25T00:03:41.407Z,1021.77
2018-12-25T00:04:41.367Z,1021.80
2018-12-25T00:05:41.367Z,1021.76
2018-12-25T00:06:41.359Z,1021.74
2018-12-25T00:07:41.340Z,1021.76
2018-12-25T00:08:41.366Z,1021.77
2018-12-25T00:09:41.324Z,1021.73
2018-12-25T00:10:41.306Z,1021.71
2018-12-25T00:11:41.284Z,1021.70
2018-12-25T00:12:41.281Z,1021.69
2018-12-25T00:13:41.286Z,1021.81
2018-12-25T00:14:41.297Z,1021.76
2018-12-25T00:15:41.284Z,1021.76
2018-12-25T00:16:41.255Z,1021.78
2018-12-25T00:17:41.223Z,1021.83
2018-12-25T00:18:41.220Z,1021.84
2018-12-25T00:19:41.208Z,1021.73
2018-12-25T00:20:41.221Z,1021.83
2018-12-25T00:21:41.177Z,1021.74
2018-12-25T00:22:41.176Z,1021.81
2018-12-25T00:23:41.165Z,1021.80
2018-12-25T00:24:41.143Z,1021.82
2018-12-25T00:25:41.176Z,1021.81
2018-12-25T00:26:41.137Z,1021.76
2018-12-25T00:27:41.123Z,1021.85
2018-12-25T00:28:41.116Z,1021.82
2018-12-25T00:29:41.100Z,1021.80
2018-12-25T00:30:41.109Z,1021.80
2018-12-25T00:31:41.109Z,1021.75
2018-12-25T00:32:41.073Z,1021.70
2018-12-25T00:33:41.061Z,1021.73
2018-12-25T00:34:41.054Z,1021.71
2018-12-25T00:35:41.055Z,1021.76
2018-12-25T00:36:41.058Z,1021.70
2018-12-25T00:37:41.011Z,1021.66
2018-12-25T00:38:41.004Z,1021.71
2018-12-25T00:39:40.987Z,1021.74
2018-12-25T00:40:40.982Z,1021.64
2018-12-25T00:41:40.964Z,1021.66
2018-12-25T00:42:40.978Z,1021.64
2018-12-25T00:43:40.947Z,1021.57
2018-12-25T00:44:40.934Z,1021.60
2018-12-25T00:45:40.933Z,1021.61
2018-12-25T00:46:40.916Z,1021.67
2018-12-25T00:47:40.915Z,1021.66
2018-12-25T00:48:40.929Z,1021.67
2018-12-25T00:49:40.885Z,1021.60
2018-12-25T00:50:40.872Z,1021.59
2018-12-25T00:51:40.855Z,1021.62
2018-12-25T00:52:40.864Z,1021.63
2018-12-25T00:53:40.841Z,1021.63
2018-12-25T00:54:40.864Z,1021.66
2018-12-25T00:55:40.824Z,1021.69
2018-12-25T00:56:40.812Z,1021.67
2018-12-25T00:57:40.844Z,1021.68
2018-12-25T00:58:40.794Z,1021.65
2018-12-25T00:59:40.766Z,1021.67
2018-12-25T01:00:40.757Z,1021.63
2018-12-25T01:01:40.773Z,1021.64
2018-12-25T01:02:40.765Z,1021.75
2018-12-25T01:03:40.738Z,1021.63
2018-12-25T01:04:40.728Z,1021.75
2018-12-25T01:05:40.700Z,1021.79
2018-12-25T01:06:40.695Z,1021.72
2018-12-25T01:07:40.710Z,1021.69
2018-12-25T01:08:40.678Z,1021.62
2018-12-25T01:09:40.657Z,1021.67
2018-12-25T01:10:40.649Z,1021.63
2018-12-25T01:11:40.640Z,1021.64
2018-12-25T01:12:40.635Z,1021.64
2018-12-25T01:13:40.653Z,1021.76
2018-12-25T01:14:40.614Z,1021.82
2018-12-25T01:15:40.610Z,1021.86
2018-12-25T01:16:40.601Z,1021.86
2018-12-25T01:17:40.574Z,1021.83
2018-12-25T01:18:40.585Z,1021.83
2018-12-25T01:19:40.578Z,1021.85
2018-12-25T01:20:40.544Z,1021.88
2018-12-25T01:21:40.549Z,1021.87
2018-12-25T01:22:40.529Z,1021.89
2018-12-25T01:23:40.519Z,1021.87
2018-12-25T01:24:40.514Z,1021.89
2018-12-25T01:25:40.503Z,1021.86
2018-12-25T01:26:40.494Z,1021.87
2018-12-25T01:27:40.477Z,1021.89
2018-12-25T01:28:40.485Z,1021.81
2018-12-25T01:29:40.456Z,1021.84
2018-12-25T01:30:40.442Z,1021.86
2018-12-25T01:31:40.417Z,1021.84
2018-12-25T01:32:40.447Z,1021.82
2018-12-25T01:33:40.428Z,1021.86
2018-12-25T01:34:40.420Z,1021.85
2018-12-25T01:35:40.414Z,1021.87
2018-12-25T01:36:40.370Z,1021.89
2018-12-25T01:37:40.372Z,1021.85
2018-12-25T01:38:40.340Z,1021.90
2018-12-25T01:39:40.398Z,1021.87
2018-12-25T01:40:40.347Z,1021.88
2018-12-25T01:41:40.315Z,1021.83
2018-12-25T01:42:40.343Z,1021.81
2018-12-25T01:43:40.289Z,1021.79
2018-12-25T01:44:40.305Z,1021.80
2018-12-25T01:45:40.273Z,1021.85
2018-12-25T01:46:40.286Z,1021.79
2018-12-25T01:47:40.249Z,1021.80
2018-12-25T01:48:40.263Z,1021.78
2018-12-25T01:49:40.227Z,1021.83
2018-12-25T01:50:40.242Z,1021.84
2018-12-25T01:51:40.232Z,1021.85
2018-12-25T01:52:40.195Z,1021.83
2018-12-25T01:53:40.200Z,1021.73
2018-12-25T01:54:40.213Z,1021.77
2018-12-25T01:55:40.206Z,1021.82
2018-12-25T01:56:40.231Z,1021.80
2018-12-25T01:57:40.171Z,1021.71
2018-12-25T01:58:40.176Z,1021.76
2018-12-25T01:59:40.157Z,1021.79
2018-12-25T02:00:40.164Z,1021.80
2018-12-25T02:01:40.107Z,1021.82
2018-12-25T02:02:40.091Z,1021.78
2018-12-25T02:03:40.073Z,1021.82
2018-12-25T02:04:40.053Z,1021.83
2018-12-25T02:05:40.068Z,1021.81
2018-12-25T02:06:40.076Z,1021.86
2018-12-25T02:07:40.047Z,1021.86
2018-12-25T02:08:40.032Z,1021.75
2018-12-25T02:09:40.019Z,1021.73
2018-12-25T02:10:39.999Z,1021.72
2018-12-25T02:11:40.034Z,1021.67
2018-12-25T02:12:40.001Z,1021.70
2018-12-25T02:13:39.961Z,1021.75
2018-12-25T02:14:39.953Z,1021.74
2018-12-25T02:15:39.940Z,1021.72
2018-12-25T02:16:39.926Z,1021.71
2018-12-25T02:17:39.952Z,1021.78
2018-12-25T02:18:39.927Z,1021.74
2018-12-25T02:19:40.332Z,1021.68
2018-12-25T02:20:39.893Z,1021.68
2018-12-25T02:21:39.872Z,1021.71
2018-12-25T02:22:39.864Z,1021.75
2018-12-25T02:23:39.877Z,1021.78
2018-12-25T02:24:39.853Z,1021.74
2018-12-25T02:25:39.842Z,1021.66
2018-12-25T02:26:39.825Z,1021.63
2018-12-25T02:27:39.812Z,1021.67
2018-12-25T02:28:39.831Z,1021.68
2018-12-25T02:29:39.798Z,1021.64
2018-12-25T02:30:39.797Z,1021.64
2018-12-25T02:31:39.782Z,1021.66
2018-12-25T02:32:39.780Z,1021.60
2018-12-25T02:33:39.768Z,1021.54
2018-12-25T02:34:39.733Z,1021.62
2018-12-25T02:35:39.720Z,1021.59
2018-12-25T02:36:39.715Z,1021.60
2018-12-25T02:37:39.719Z,1021.56
2018-12-25T02:38:39.727Z,1021.60
2018-12-25T02:39:39.693Z,1021.61
2018-12-25T02:40:39.671Z,1021.58
2018-12-25T02:41:39.658Z,1021.59
2018-12-25T02:42:39.640Z,1021.54
2018-12-25T02:43:39.667Z,1021.48
2018-12-25T02:44:39.655Z,1021.39
2018-12-25T02:45:39.650Z,1021.46
2018-12-25T02:46:39.601Z,1021.47
2018-12-25T02:47:39.593Z,1021.53
2018-12-25T02:48:39.597Z,1021.45
2018-12-25T02:49:39.585Z,1021.49
2018-12-25T02:50:39.564Z,1021.45
2018-12-25T02:51:39.600Z,1021.38
2018-12-25T02:52:39.569Z,1021.43
2018-12-25T02:53:39.539Z,1021.33
2018-12-25T02:54:39.515Z,1021.52
2018-12-25T02:55:39.513Z,1021.57
2018-12-25T02:56:39.614Z,1021.46
2018-12-25T02:57:39.496Z,1021.47
2018-12-25T02:58:39.480Z,1021.44
2018-12-25T02:59:39.483Z,1021.40
2018-12-25T03:00:39.486Z,1021.42
2018-12-25T03:01:39.466Z,1021.42
2018-12-25T03:02:39.445Z,1021.43
2018-12-25T03:03:39.441Z,1021.42
2018-12-25T03:04:39.410Z,1021.41
2018-12-25T03:05:39.388Z,1021.45
2018-12-25T03:06:39.404Z,1021.41
2018-12-25T03:07:39.393Z,1021.37
2018-12-25T03:08:39.360Z,1021.40
2018-12-25T03:09:39.372Z,1021.37
2018-12-25T03:10:39.346Z,1021.34
2018-12-25T03:11:39.340Z,1021.40
2018-12-25T03:12:39.355Z,1021.35
2018-12-25T03:13:39.306Z,1021.39
2018-12-25T03:14:39.306Z,1021.36
2018-12-25T03:15:39.295Z,1021.37
2018-12-25T03:16:39.284Z,1021.32
2018-12-25T03:17:39.285Z,1021.30
2018-12-25T03:18:39.262Z,1021.30
2018-12-25T03:19:39.239Z,1021.35
2018-12-25T03:20:39.376Z,1021.35
2018-12-25T03:21:39.232Z,1021.32
2018-12-25T03:22:39.247Z,1021.32
2018-12-25T03:23:39.210Z,1021.33
2018-12-25T03:24:39.198Z,1021.24
2018-12-25T03:25:39.172Z,1021.16
2018-12-25T03:26:39.171Z,1021.24
2018-12-25T03:27:39.153Z,1021.32
2018-12-25T03:28:39.157Z,1021.34
2018-12-25T03:29:39.137Z,1021.40
2018-12-25T03:30:39.138Z,1021.28
2018-12-25T03:31:39.123Z,1021.29
2018-12-25T03:32:39.232Z,1021.29
2018-12-25T03:33:39.126Z,1021.32
2018-12-25T03:34:39.096Z,1021.37
2018-12-25T03:35:39.077Z,1021.29
2018-12-25T03:36:39.069Z,1021.28
2018-12-25T03:37:39.050Z,1021.26
2018-12-25T03:38:39.055Z,1021.30
2018-12-25T03:39:39.053Z,1021.26
2018-12-25T03:40:39.023Z,1021.25
2018-12-25T03:41:39.011Z,1021.23
2018-12-25T03:42:39.006Z,1021.24
2018-12-25T03:43:39.016Z,1021.28
2018-12-25T03:44:38.985Z,1021.24
2018-12-25T03:45:38.963Z,1021.20
2018-12-25T03:46:38.947Z,1021.19
2018-12-25T03:47:38.949Z,1021.22
2018-12-25T03:48:38.957Z,1021.21
2018-12-25T03:49:38.926Z,1021.18
2018-12-25T03:50:38.905Z,1021.17
2018-12-25T03:51:38.892Z,1021.18
2018-12-25T03:52:38.890Z,1021.18
2018-12-25T03:53:38.898Z,1021.22
2018-12-25T03:54:38.871Z,1021.23
2018-12-25T03:55:38.860Z,1021.25
2018-12-25T03:56:38.853Z,1021.20
2018-12-25T03:57:38.826Z,1021.24
2018-12-25T03:58:38.854Z,1021.21
2018-12-25T03:59:38.810Z,1021.13
2018-12-25T04:00:38.791Z,1021.19
2018-12-25T04:01:38.801Z,1021.13
2018-12-25T04:02:38.782Z,1021.17
2018-12-25T04:03:38.765Z,1021.09
2018-12-25T04:04:38.772Z,1021.13
2018-12-25T04:05:38.891Z,1021.14
2018-12-25T04:06:38.748Z,1021.09
2018-12-25T04:07:38.734Z,1021.10
2018-12-25T04:08:38.713Z,1021.05
2018-12-25T04:09:38.705Z,1021.06
2018-12-25T04:10:38.685Z,1021.08
2018-12-25T04:11:38.691Z,1021.05
2018-12-25T04:12:38.670Z,1021.05
2018-12-25T04:13:38.674Z,1020.99
2018-12-25T04:14:38.651Z,1020.96
2018-12-25T04:15:38.640Z,1020.95
2018-12-25T04:16:38.653Z,1021.00
2018-12-25T04:17:38.607Z,1020.97
2018-12-25T04:18:38.598Z,1021.01
2018-12-25T04:19:38.594Z,1021.02
2018-12-25T04:20:38.586Z,1021.03
2018-12-25T04:21:38.568Z,1021.06
2018-12-25T04:22:38.590Z,1021.01
2018-12-25T04:23:38.553Z,1021.01
2018-12-25T04:24:38.544Z,1021.10
2018-12-25T04:25:38.531Z,1021.03
2018-12-25T04:26:38.515Z,1021.08
2018-12-25T04:27:38.530Z,1021.08
2018-12-25T04:28:38.498Z,1021.09
2018-12-25T04:29:38.481Z,1021.05
2018-12-25T04:30:38.468Z,1021.05
2018-12-25T04:31:38.476Z,1021.07
2018-12-25T04:32:38.469Z,1021.05
2018-12-25T04:33:38.446Z,1021.10
2018-12-25T04:34:38.439Z,1021.12
2018-12-25T04:35:38.417Z,1021.08
2018-12-25T04:36:38.410Z,1021.08
2018-12-25T04:37:38.429Z,1021.09
2018-12-25T04:38:38.398Z,1021.05
2018-12-25T04:39:38.406Z,1021.05
2018-12-25T04:40:38.397Z,1021.07
2018-12-25T04:41:38.353Z,1021.04
2018-12-25T04:42:38.406Z,1021.05
2018-12-25T04:43:38.340Z,1021.05
2018-12-25T04:44:38.307Z,1021.10
2018-12-25T04:45:38.314Z,1021.09
2018-12-25T04:46:38.304Z,1021.11
2018-12-25T04:47:38.311Z,1021.09
2018-12-25T04:48:38.298Z,1021.13
2018-12-25T04:49:38.259Z,1021.11
2018-12-25T04:50:38.246Z,1021.09
2018-12-25T04:51:38.244Z,1021.09
2018-12-25T04:52:38.234Z,1021.13
2018-12-25T04:53:38.238Z,1021.05
2018-12-25T04:54:38.210Z,1021.17
2018-12-25T04:55:38.189Z,1021.15
2018-12-25T04:56:38.189Z,1021.20
2018-12-25T04:57:38.184Z,1021.12
2018-12-25T04:58:38.195Z,1021.13
2018-12-25T04:59:38.159Z,1021.15
2018-12-25T05:00:38.149Z,1021.15
2018-12-25T05:01:38.124Z,1021.21
2018-12-25T05:02:38.113Z,1021.12
2018-12-25T05:03:38.116Z,1021.16
2018-12-25T05:04:38.115Z,1021.12
2018-12-25T05:05:38.094Z,1021.10
2018-12-25T05:06:38.088Z,1021.12
2018-12-25T05:07:38.060Z,1021.18
2018-12-25T05:08:38.073Z,1021.09
2018-12-25T05:09:38.055Z,1021.19
2018-12-25T05:10:38.065Z,1021.27
2018-12-25T05:11:38.029Z,1021.19
2018-12-25T05:12:38.015Z,1021.22
2018-12-25T05:13:38.906Z,1021.16
2018-12-25T05:14:37.988Z,1021.25
2018-12-25T05:15:37.969Z,1021.20
2018-12-25T05:16:37.986Z,1021.19
2018-12-25T05:17:37.976Z,1021.22
2018-12-25T05:18:37.947Z,1021.21
2018-12-25T05:19:37.934Z,1021.18
2018-12-25T05:20:38.250Z,1021.20
2018-12-25T05:21:37.931Z,1021.25
2018-12-25T05:22:37.898Z,1021.26
2018-12-25T05:23:37.907Z,1021.23
2018-12-25T05:24:37.884Z,1021.23
2018-12-25T05:25:37.860Z,1021.21
2018-12-25T05:26:37.876Z,1021.19
2018-12-25T05:27:37.865Z,1021.17
2018-12-25T05:28:37.838Z,1021.23
2018-12-25T05:29:37.841Z,1021.26
2018-12-25T05:30:37.822Z,1021.32
2018-12-25T05:31:37.833Z,1021.30
2018-12-25T05:32:37.803Z,1021.31
2018-12-25T05:33:37.789Z,1021.28
2018-12-25T05:34:37.823Z,1021.28
2018-12-25T05:35:37.758Z,1021.35
2018-12-25T05:36:37.752Z,1021.38
2018-12-25T05:37:37.765Z,1021.41
2018-12-25T05:38:37.743Z,1021.36
2018-12-25T05:39:37.716Z,1021.43
2018-12-25T05:40:37.696Z,1021.41
2018-12-25T05:41:37.696Z,1021.43
2018-12-25T05:42:37.710Z,1021.42
2018-12-25T05:43:37.677Z,1021.35
2018-12-25T05:44:37.678Z,1021.46
2018-12-25T05:45:37.654Z,1021.40
2018-12-25T05:46:37.636Z,1021.39
2018-12-25T05:47:37.670Z,1021.46
2018-12-25T05:48:37.624Z,1021.43
2018-12-25T05:49:37.611Z,1021.37
2018-12-25T05:50:37.615Z,1021.40
2018-12-25T05:51:37.595Z,1021.39
2018-12-25T05:52:37.608Z,1021.41
2018-12-25T05:53:37.559Z,1021.39
2018-12-25T05:54:37.547Z,1021.38
2018-12-25T05:55:37.547Z,1021.36
2018-12-25T05:56:37.533Z,1021.34
2018-12-25T05:57:37.529Z,1021.34
2018-12-25T05:58:37.529Z,1021.31
2018-12-25T05:59:37.492Z,1021.36
2018-12-25T06:00:37.483Z,1021.34
2018-12-25T06:01:37.490Z,1021.31
2018-12-25T06:02:37.505Z,1021.34
2018-12-25T06:03:37.487Z,1021.32
2018-12-25T06:04:37.475Z,1021.42
2018-12-25T06:05:37.429Z,1021.37
2018-12-25T06:06:37.413Z,1021.41
2018-12-25T06:07:37.421Z,1021.33
2018-12-25T06:08:37.429Z,1021.36
2018-12-25T06:09:37.443Z,1021.36
2018-12-25T06:10:37.388Z,1021.40
2018-12-25T06:11:37.370Z,1021.36
2018-12-25T06:12:37.354Z,1021.31
2018-12-25T06:13:37.365Z,1021.38
2018-12-25T06:14:37.343Z,1021.34
2018-12-25T06:15:37.353Z,1021.35
2018-12-25T06:16:37.315Z,1021.32
2018-12-25T06:17:37.300Z,1021.36
2018-12-25T06:18:37.290Z,1021.34
2018-12-25T06:19:37.271Z,1021.35
2018-12-25T06:20:37.271Z,1021.35
2018-12-25T06:21:37.287Z,1021.35
2018-12-25T06:22:37.252Z,1021.35
2018-12-25T06:23:37.273Z,1021.34
2018-12-25T06:24:37.234Z,1021.35
2018-12-25T06:25:37.209Z,1021.34
2018-12-25T06:26:37.236Z,1021.34
2018-12-25T06:27:37.197Z,1021.41
2018-12-25T06:28:37.274Z,1021.40
2018-12-25T06:29:37.167Z,1021.39
2018-12-25T06:30:37.167Z,1021.38
2018-12-25T06:31:37.173Z,1021.36
2018-12-25T06:32:37.136Z,1021.36
2018-12-25T06:33:37.131Z,1021.31
2018-12-25T06:34:37.136Z,1021.35
2018-12-25T06:35:37.113Z,1021.29
2018-12-25T06:36:37.117Z,1021.27
2018-12-25T06:37:37.100Z,1021.32
2018-12-25T06:38:37.070Z,1021.26
2018-12-25T06:39:37.055Z,1021.33
2018-12-25T06:40:37.041Z,1021.19
2018-12-25T06:41:37.073Z,1021.20
2018-12-25T06:42:37.038Z,1021.21
2018-12-25T06:43:37.015Z,1021.14
2018-12-25T06:44:37.070Z,1021.10
2018-12-25T06:45:36.997Z,1021.08
2018-12-25T06:46:37.015Z,1021.10
2018-12-25T06:47:36.987Z,1021.04
2018-12-25T06:48:36.979Z,1021.05
2018-12-25T06:49:36.945Z,1021.02
2018-12-25T06:50:36.937Z,1021.00
2018-12-25T06:51:36.952Z,1021.01
2018-12-25T06:52:36.938Z,1021.03
2018-12-25T06:53:36.930Z,1021.06
2018-12-25T06:54:36.912Z,1021.12
2018-12-25T06:55:36.940Z,1021.04
2018-12-25T06:56:36.907Z,1021.04
2018-12-25T06:57:36.859Z,1021.04
2018-12-25T06:58:36.854Z,1021.07
2018-12-25T06:59:36.859Z,1021.12
2018-12-25T07:00:36.835Z,1021.15
2018-12-25T07:01:36.896Z,1021.14
2018-12-25T07:02:36.811Z,1021.08
2018-12-25T07:03:36.810Z,1021.01
2018-12-25T07:04:36.787Z,1020.93
2018-12-25T07:05:36.784Z,1020.92
2018-12-25T07:06:36.831Z,1020.90
2018-12-25T07:07:36.763Z,1020.86
2018-12-25T07:08:36.747Z,1020.86
2018-12-25T07:09:36.724Z,1020.94
2018-12-25T07:10:36.723Z,1020.85
2018-12-25T07:11:36.732Z,1020.82
2018-12-25T07:12:36.713Z,1020.79
2018-12-25T07:13:36.724Z,1020.80
2018-12-25T07:14:36.688Z,1020.77
2018-12-25T07:15:36.678Z,1020.75
2018-12-25T07:16:36.680Z,1020.72
2018-12-25T07:17:36.659Z,1020.77
2018-12-25T07:18:36.657Z,1020.80
2018-12-25T07:19:36.639Z,1020.73
2018-12-25T07:20:36.618Z,1020.73
2018-12-25T07:21:36.600Z,1020.81
2018-12-25T07:22:36.607Z,1020.79
2018-12-25T07:23:36.576Z,1020.71
2018-12-25T07:24:36.568Z,1020.70
2018-12-25T07:25:36.661Z,1020.71
2018-12-25T07:26:36.551Z,1020.68
2018-12-25T07:27:36.588Z,1020.69
2018-12-25T07:28:36.534Z,1020.72
2018-12-25T07:29:36.526Z,1020.68
2018-12-25T07:30:36.538Z,1020.72
2018-12-25T07:31:36.507Z,1020.76
2018-12-25T07:32:36.994Z,1020.71
2018-12-25T07:33:36.472Z,1020.65
2018-12-25T07:34:36.466Z,1020.59
2018-12-25T07:35:36.451Z,1020.59
2018-12-25T07:36:36.440Z,1020.59
2018-12-25T07:37:36.436Z,1020.63
2018-12-25T07:38:36.458Z,1020.62
2018-12-25T07:39:36.424Z,1020.60
2018-12-25T07:40:36.403Z,1020.59
2018-12-25T07:41:36.419Z,1020.59
2018-12-25T07:42:36.382Z,1020.62
2018-12-25T07:43:36.380Z,1020.61
2018-12-25T07:44:36.342Z,1020.60
2018-12-25T07:45:36.338Z,1020.57
2018-12-25T07:46:36.330Z,1020.55
2018-12-25T07:47:36.311Z,1020.49
2018-12-25T07:48:36.339Z,1020.47
2018-12-25T07:49:36.321Z,1020.46
2018-12-25T07:50:36.293Z,1020.48
2018-12-25T07:51:36.280Z,1020.48
2018-12-25T07:52:36.288Z,1020.43
2018-12-25T07:53:36.252Z,1020.48
2018-12-25T07:54:36.254Z,1020.45
2018-12-25T07:55:36.226Z,1020.53
2018-12-25T07:56:36.231Z,1020.49
2018-12-25T07:57:36.215Z,1020.55
2018-12-25T07:58:36.221Z,1020.46
2018-12-25T07:59:36.189Z,1020.50
2018-12-25T08:00:36.182Z,1020.40
2018-12-25T08:01:36.156Z,1020.48
2018-12-25T08:02:36.153Z,1020.55
2018-12-25T08:03:36.174Z,1020.66
2018-12-25T08:04:36.158Z,1020.60
2018-12-25T08:05:36.127Z,1020.66
2018-12-25T08:06:36.121Z,1020.61
2018-12-25T08:07:36.096Z,1020.64
2018-12-25T08:08:36.082Z,1020.67
2018-12-25T08:09:36.108Z,1020.73
2018-12-25T08:10:36.090Z,1020.59
2018-12-25T08:11:36.069Z,1020.73
2018-12-25T08:12:36.066Z,1020.70
2018-12-25T08:13:36.042Z,1020.71
2018-12-25T08:14:36.052Z,1020.66
2018-12-25T08:15:36.013Z,1020.80
2018-12-25T08:16:35.992Z,1020.80
2018-12-25T08:17:35.996Z,1020.79
2018-12-25T08:18:35.988Z,1020.80
2018-12-25T08:19:35.961Z,1020.74
2018-12-25T08:20:35.971Z,1020.75
2018-12-25T08:21:35.958Z,1020.75
2018-12-25T08:22:35.942Z,1020.79
2018-12-25T08:23:35.934Z,1020.85
2018-12-25T08:24:35.926Z,1020.83
2018-12-25T08:25:36.090Z,1020.80
2018-12-25T08:26:35.890Z,1020.80
2018-12-25T08:27:35.886Z,1020.82
2018-12-25T08:28:35.867Z,1020.80
2018-12-25T08:29:35.867Z,1020.81
2018-12-25T08:30:35.875Z,1020.81
2018-12-25T08:31:35.859Z,1020.75
2018-12-25T08:32:35.935Z,1020.78
2018-12-25T08:33:35.818Z,1020.89
2018-12-25T08:34:35.808Z,1020.89
2018-12-25T08:35:35.816Z,1020.87
2018-12-25T08:36:36.527Z,1020.87
2018-12-25T08:37:35.766Z,1020.87
2018-12-25T08:38:35.761Z,1020.83
2018-12-25T08:39:35.764Z,1020.77
2018-12-25T08:40:35.759Z,1020.83
2018-12-25T08:41:35.733Z,1020.78
2018-12-25T08:42:35.721Z,1020.78
2018-12-25T08:43:35.709Z,1020.71
2018-12-25T08:44:35.704Z,1020.74
2018-12-25T08:45:35.707Z,1020.77
2018-12-25T08:46:35.668Z,1020.58
2018-12-25T08:47:35.718Z,1020.75
2018-12-25T08:48:35.658Z,1020.78
2018-12-25T08:49:35.647Z,1020.76
2018-12-25T08:50:35.662Z,1020.76
2018-12-25T08:51:37.699Z,1020.73
2018-12-25T08:52:35.615Z,1020.71
2018-12-25T08:53:35.603Z,1020.65
2018-12-25T08:54:35.598Z,1020.61
2018-12-25T08:55:35.604Z,1020.64
2018-12-25T08:56:35.580Z,1020.66
2018-12-25T08:57:35.553Z,1020.65
2018-12-25T08:58:35.557Z,1020.75
2018-12-25T08:59:35.596Z,1020.79
2018-12-25T09:00:35.537Z,1020.69
2018-12-25T09:01:35.512Z,1020.70
2018-12-25T09:02:35.513Z,1020.73
2018-12-25T09:03:35.496Z,1020.77
2018-12-25T09:04:35.503Z,1020.83
2018-12-25T09:05:35.504Z,1020.92
2018-12-25T09:06:35.457Z,1020.88
2018-12-25T09:07:35.450Z,1020.90
2018-12-25T09:08:35.453Z,1020.89
2018-12-25T09:09:35.427Z,1020.90
2018-12-25T09:10:35.408Z,1020.93
2018-12-25T09:11:35.436Z,1020.92
2018-12-25T09:12:35.394Z,1020.89
2018-12-25T09:13:35.385Z,1020.92
2018-12-25T09:14:35.392Z,1020.88
2018-12-25T09:15:35.386Z,1020.94
2018-12-25T09:16:35.368Z,1020.89
2018-12-25T09:17:35.351Z,1020.85
2018-12-25T09:18:35.336Z,1020.87
2018-12-25T09:19:35.311Z,1020.88
2018-12-25T09:20:35.299Z,1020.82
2018-12-25T09:21:35.303Z,1020.91
2018-12-25T09:22:35.295Z,1020.89
2018-12-25T09:23:35.292Z,1020.91
2018-12-25T09:24:35.256Z,1020.89
2018-12-25T09:25:35.267Z,1020.99
2018-12-25T09:26:35.257Z,1020.93
2018-12-25T09:27:35.255Z,1020.74
2018-12-25T09:28:35.257Z,1020.85
2018-12-25T09:29:35.202Z,1020.71
2018-12-25T09:30:35.192Z,1020.75
2018-12-25T09:31:35.187Z,1020.72
2018-12-25T09:32:35.173Z,1020.73
2018-12-25T09:33:35.278Z,1020.77
2018-12-25T09:34:35.153Z,1020.75
2018-12-25T09:35:35.149Z,1020.78
2018-12-25T09:36:35.149Z,1020.69
2018-12-25T09:37:35.131Z,1020.70
2018-12-25T09:38:35.114Z,1020.71
2018-12-25T09:39:35.146Z,1020.72
2018-12-25T09:40:35.087Z,1020.69
2018-12-25T09:41:35.066Z,1020.72
2018-12-25T09:42:35.069Z,1020.75
2018-12-25T09:43:35.049Z,1020.74
2018-12-25T09:44:35.048Z,1020.74
2018-12-25T09:45:35.067Z,1020.78
2018-12-25T09:46:35.034Z,1020.80
2018-12-25T09:47:35.015Z,1020.69
2018-12-25T09:48:35.011Z,1020.73
2018-12-25T09:49:34.979Z,1020.70
2018-12-25T09:50:34.991Z,1020.69
2018-12-25T09:51:34.964Z,1020.68
2018-12-25T09:52:34.948Z,1020.67
2018-12-25T09:53:34.945Z,1020.63
2018-12-25T09:54:34.945Z,1020.55
2018-12-25T09:55:34.917Z,1020.50
2018-12-25T09:56:34.922Z,1020.61
2018-12-25T09:57:34.922Z,1020.60
2018-12-25T09:58:34.896Z,1020.55
2018-12-25T09:59:34.886Z,1020.55
2018-12-25T10:00:34.878Z,1020.58
2018-12-25T10:01:34.887Z,1020.60
2018-12-25T10:02:34.855Z,1020.60
2018-12-25T10:03:34.844Z,1020.62
2018-12-25T10:04:34.823Z,1020.62
2018-12-25T10:05:34.822Z,1020.65
2018-12-25T10:06:34.842Z,1020.68
2018-12-25T10:07:34.794Z,1020.66
2018-12-25T10:08:34.800Z,1020.64
2018-12-25T10:09:34.764Z,1020.63
2018-12-25T10:10:34.750Z,1020.68
2018-12-25T10:11:34.767Z,1020.65
2018-12-25T10:12:34.766Z,1020.70
2018-12-25T10:13:34.721Z,1020.71
2018-12-25T10:14:34.708Z,1020.74
2018-12-25T10:15:34.697Z,1020.69
2018-12-25T10:16:34.715Z,1020.62
2018-12-25T10:17:34.683Z,1020.66
2018-12-25T10:18:34.673Z,1020.65
2018-12-25T10:19:34.671Z,1020.64
2018-12-25T10:20:34.654Z,1020.64
2018-12-25T10:21:34.657Z,1020.62
2018-12-25T10:22:34.650Z,1020.68
2018-12-25T10:23:34.621Z,1020.62
2018-12-25T10:24:34.602Z,1020.62
2018-12-25T10:25:34.596Z,1020.74
2018-12-25T10:26:34.617Z,1020.63
2018-12-25T10:27:34.578Z,1020.64
2018-12-25T10:28:34.563Z,1020.74
2018-12-25T10:29:34.559Z,1020.69
2018-12-25T10:30:34.543Z,1020.71
2018-12-25T10:31:34.553Z,1020.74
2018-12-25T10:32:34.523Z,1020.69
2018-12-25T10:33:34.521Z,1020.66
2018-12-25T10:34:34.487Z,1020.75
2018-12-25T10:35:34.478Z,1020.72
2018-12-25T10:36:34.503Z,1020.74
2018-12-25T10:37:34.473Z,1020.80
2018-12-25T10:38:34.462Z,1020.69
2018-12-25T10:39:34.469Z,1020.75
2018-12-25T10:40:34.475Z,1020.77
2018-12-25T10:41:34.512Z,1020.75
2018-12-25T10:42:34.480Z,1020.83
2018-12-25T10:43:35.002Z,1020.80
2018-12-25T10:44:34.450Z,1020.74
2018-12-25T10:45:34.425Z,1020.76
2018-12-25T10:46:34.377Z,1020.74
2018-12-25T10:47:34.422Z,1020.72
2018-12-25T10:48:34.348Z,1020.64
2018-12-25T10:49:34.337Z,1020.70
2018-12-25T10:50:34.324Z,1020.73
2018-12-25T10:51:34.338Z,1020.76
2018-12-25T10:52:34.306Z,1020.72
2018-12-25T10:53:34.282Z,1020.72
2018-12-25T10:54:34.278Z,1020.73
2018-12-25T10:55:34.261Z,1020.71
2018-12-25T10:56:34.269Z,1020.66
2018-12-25T10:57:34.249Z,1020.64
2018-12-25T10:58:34.250Z,1020.74
2018-12-25T10:59:34.214Z,1020.73
2018-12-25T11:00:34.203Z,1020.74
2018-12-25T11:01:34.237Z,1020.72
2018-12-25T11:02:34.210Z,1020.68
2018-12-25T11:03:34.178Z,1020.61
2018-12-25T11:04:34.177Z,1020.60
2018-12-25T11:05:34.154Z,1020.54
2018-12-25T11:06:34.165Z,1020.56
2018-12-25T11:07:34.128Z,1020.60
2018-12-25T11:08:34.124Z,1020.58
2018-12-25T11:09:34.117Z,1020.60
2018-12-25T11:10:34.137Z,1020.63
2018-12-25T11:11:34.101Z,1020.62
2018-12-25T11:12:34.080Z,1020.62
2018-12-25T11:13:34.061Z,1020.61
2018-12-25T11:14:34.053Z,1020.66
2018-12-25T11:15:34.050Z,1020.70
2018-12-25T11:16:34.064Z,1020.64
2018-12-25T11:17:34.023Z,1020.60
2018-12-25T11:18:34.006Z,1020.64
2018-12-25T11:19:34.000Z,1020.70
2018-12-25T11:20:33.983Z,1020.64
2018-12-25T11:21:34.002Z,1020.59
2018-12-25T11:22:33.970Z,1020.62
2018-12-25T11:23:33.971Z,1020.64
2018-12-25T11:24:33.952Z,1020.67
2018-12-25T11:25:33.933Z,1020.62
2018-12-25T11:26:33.942Z,1020.63
2018-12-25T11:27:33.920Z,1020.53
2018-12-25T11:28:33.898Z,1020.58
2018-12-25T11:29:33.914Z,1020.65
2018-12-25T11:30:33.895Z,1020.60
2018-12-25T11:31:33.883Z,1020.70
2018-12-25T11:32:33.869Z,1020.62
2018-12-25T11:33:34.479Z,1020.66
2018-12-25T11:34:33.846Z,1020.65
2018-12-25T11:35:33.839Z,1020.53
2018-12-25T11:36:33.855Z,1020.59
2018-12-25T11:37:33.819Z,1020.62
2018-12-25T11:38:33.792Z,1020.63
2018-12-25T11:39:33.788Z,1020.58
2018-12-25T11:40:33.775Z,1020.65
2018-12-25T11:41:33.791Z,1020.65
2018-12-25T11:42:33.781Z,1020.69
2018-12-25T11:43:33.761Z,1020.59
2018-12-25T11:44:33.734Z,1020.58
2018-12-25T11:45:33.710Z,1020.60
2018-12-25T11:46:33.712Z,1020.55
2018-12-25T11:47:33.803Z,1020.54
2018-12-25T11:48:33.684Z,1020.51
2018-12-25T11:49:33.679Z,1020.55
2018-12-25T11:50:33.665Z,1020.63
2018-12-25T11:51:33.641Z,1020.67
2018-12-25T11:52:33.648Z,1020.69
2018-12-25T11:53:33.659Z,1020.68
2018-12-25T11:54:33.683Z,1020.67
2018-12-25T11:55:33.636Z,1020.64
2018-12-25T11:56:33.609Z,1020.68
2018-12-25T11:57:33.584Z,1020.68
2018-12-25T11:58:33.566Z,1020.66
2018-12-25T11:59:33.592Z,1020.65
2018-12-25T12:00:33.564Z,1020.70
2018-12-25T12:01:33.538Z,1020.65
2018-12-25T12:02:33.542Z,1020.66
2018-12-25T12:03:33.518Z,1020.66
2018-12-25T12:04:33.531Z,1020.58
2018-12-25T12:05:33.501Z,1020.64